createdAt,value
2023-01-29T00:01:33.449Z,99541.27
2023-01-29T00:04:00.137Z,99547.92
2023-01-29T00:06:26.898Z,99548.75
2023-01-29T00:08:53.855Z,99553.58
2023-01-29T00:11:21.399Z,99554.11
2023-01-29T00:13:48.086Z,99555.67
2023-01-29T00:16:14.922Z,99556.21
2023-01-29T00:18:41.638Z,99557.86
2023-01-29T00:21:13.639Z,99560.38
2023-01-29T00:23:41.000Z,99562.27
2023-01-29T00:26:08.056Z,99558.42
2023-01-29T00:28:36.100Z,99557.59
2023-01-29T00:31:10.224Z,99557.83
2023-01-29T00:33:36.939Z,99559.21
2023-01-29T00:36:08.193Z,99559.65
2023-01-29T00:38:35.564Z,99563.20
2023-01-29T00:41:30.027Z,99567.61
2023-01-29T00:44:15.489Z,99563.84
2023-01-29T00:46:43.557Z,99563.83
2023-01-29T00:49:10.495Z,99566.70
2023-01-29T00:51:37.718Z,99570.92
2023-01-29T00:54:06.171Z,99565.58
2023-01-29T00:56:35.384Z,99566.02
2023-01-29T00:59:03.190Z,99561.50
2023-01-29T01:01:49.075Z,99564.05
2023-01-29T01:04:15.835Z,99559.63
2023-01-29T01:06:42.935Z,99562.56
2023-01-29T01:09:28.479Z,99559.48
2023-01-29T01:11:55.660Z,99560.93
2023-01-29T04:31:03.123Z,99562.44
2023-01-29T04:33:41.817Z,99566.98
2023-01-29T04:36:24.122Z,99570.04
2023-01-29T04:39:12.063Z,99562.33
2023-01-29T04:41:55.509Z,99567.01
2023-01-29T04:44:38.424Z,99568.10
2023-01-29T04:47:30.155Z,99567.34
2023-01-29T04:49:56.873Z,99568.61
2023-01-29T04:52:47.265Z,99568.41
2023-01-29T04:55:37.790Z,99568.91
2023-01-29T04:58:18.635Z,99566.98
2023-01-29T05:00:47.276Z,99568.48
2023-01-29T05:03:14.745Z,99569.84
2023-01-29T05:05:43.572Z,99572.02
2023-01-29T05:08:12.426Z,99573.00
2023-01-29T05:10:39.402Z,99573.79
2023-01-29T05:13:07.349Z,99574.11
2023-01-29T05:15:43.688Z,99573.83
2023-01-29T05:18:10.607Z,99574.23
2023-01-29T05:20:38.746Z,99571.32
2023-01-29T05:23:10.466Z,99571.80
2023-01-29T05:25:37.654Z,99570.66
2023-01-29T05:28:05.322Z,99573.48
2023-01-29T05:30:33.921Z,99576.74
2023-01-29T05:33:01.047Z,99578.94
2023-01-29T05:35:28.196Z,99578.94
2023-01-29T05:37:56.368Z,99581.58
2023-01-29T05:40:23.920Z,99584.05
2023-01-29T05:42:51.498Z,99582.90
2023-01-29T05:45:19.180Z,99583.96
2023-01-29T05:47:46.233Z,99583.91
2023-01-29T05:50:13.825Z,99584.05
2023-01-29T05:52:41.110Z,99583.63
2023-01-29T05:55:09.303Z,99583.91
2023-01-29T05:57:35.990Z,99582.98
2023-01-29T06:00:03.920Z,99581.55
2023-01-29T06:02:39.896Z,99582.33
2023-01-29T06:05:07.442Z,99585.14
2023-01-29T06:07:34.188Z,99588.30
2023-01-29T06:10:02.142Z,99590.58
2023-01-29T06:12:29.258Z,99589.09
2023-01-29T06:14:56.012Z,99589.66
2023-01-29T06:17:24.380Z,99590.90
2023-01-29T06:19:51.218Z,99587.45
2023-01-29T06:22:18.266Z,99589.05
2023-01-29T06:24:45.726Z,99588.98
2023-01-29T06:27:12.931Z,99589.77
2023-01-29T06:29:39.716Z,99584.80
2023-01-29T06:32:06.698Z,99584.91
2023-01-29T06:34:33.812Z,99583.94
2023-01-29T06:37:00.544Z,99585.15
2023-01-29T06:39:27.904Z,99590.23
2023-01-29T06:41:54.944Z,99586.82
2023-01-29T06:44:21.594Z,99591.91
2023-01-29T06:46:48.426Z,99593.04
2023-01-29T06:49:15.152Z,99587.60
2023-01-29T06:51:47.778Z,99589.70
2023-01-29T06:54:14.810Z,99591.91
2023-01-29T06:56:41.390Z,99593.38
2023-01-29T06:59:07.969Z,99586.55
2023-01-29T07:01:40.458Z,99588.17
2023-01-29T07:04:07.048Z,99589.68
2023-01-29T07:06:33.725Z,99589.50
2023-01-29T07:09:00.588Z,99591.05
2023-01-29T07:11:27.995Z,99590.45
2023-01-29T07:13:55.227Z,99592.86
2023-01-29T07:16:22.861Z,99588.04
2023-01-29T07:18:49.699Z,99588.36
2023-01-29T07:21:16.410Z,99589.51
2023-01-29T07:23:43.130Z,99590.73
2023-01-29T07:26:12.493Z,99590.11
2023-01-29T07:28:39.512Z,99585.26
2023-01-29T07:31:06.713Z,99593.08
2023-01-29T07:33:34.621Z,99592.85
2023-01-29T07:36:01.247Z,99592.96
2023-01-29T07:38:27.969Z,99595.77
2023-01-29T07:40:55.000Z,99591.65
2023-01-29T07:43:24.330Z,99589.48
2023-01-29T07:45:51.690Z,99591.06
2023-01-29T07:48:18.749Z,99590.58
2023-01-29T07:50:45.687Z,99591.64
2023-01-29T07:53:15.692Z,99592.39
2023-01-29T07:55:45.198Z,99589.73
2023-01-29T07:58:12.138Z,99589.20
2023-01-29T08:00:39.123Z,99589.52
2023-01-29T08:03:07.559Z,99585.83
2023-01-29T08:05:35.202Z,99584.93
2023-01-29T08:08:06.915Z,99589.48
2023-01-29T08:10:35.930Z,99590.20
2023-01-29T08:13:03.253Z,99595.80
2023-01-29T08:15:33.605Z,99593.55
2023-01-29T08:18:01.785Z,99594.12
2023-01-29T08:20:28.608Z,99592.94
2023-01-29T08:23:07.916Z,99599.65
2023-01-29T08:25:35.023Z,99597.31
2023-01-29T08:28:01.718Z,99596.45
2023-01-29T08:30:30.561Z,99595.61
2023-01-29T08:32:57.320Z,99598.84
2023-01-29T08:35:24.351Z,99596.82
2023-01-29T08:37:55.429Z,99594.04
2023-01-29T08:40:22.168Z,99599.52
2023-01-29T08:42:48.723Z,99596.77
2023-01-29T08:45:15.425Z,99595.81
2023-01-29T08:47:47.652Z,99591.43
2023-01-29T08:50:18.625Z,99590.05
2023-01-29T08:52:46.066Z,99585.60
2023-01-29T08:55:12.831Z,99585.26
2023-01-29T08:57:39.618Z,99584.75
2023-01-29T09:00:07.116Z,99583.85
2023-01-29T09:02:34.025Z,99580.68
2023-01-29T09:05:00.904Z,99579.01
2023-01-29T09:07:28.813Z,99578.90
2023-01-29T09:09:55.855Z,99574.46
2023-01-29T09:12:22.444Z,99577.23
2023-01-29T09:14:49.010Z,99572.86
2023-01-29T09:17:15.718Z,99570.20
2023-01-29T09:19:42.472Z,99568.41
2023-01-29T09:22:11.610Z,99567.52
2023-01-29T09:24:38.726Z,99570.21
2023-01-29T09:27:07.264Z,99569.52
2023-01-29T09:29:35.957Z,99564.80
2023-01-29T09:32:07.054Z,99565.24
2023-01-29T09:34:37.123Z,99559.86
2023-01-29T09:37:03.903Z,99557.20
2023-01-29T09:39:30.803Z,99553.44
2023-01-29T09:42:14.197Z,99552.97
2023-01-29T09:44:40.717Z,99551.45
2023-01-29T09:47:10.770Z,99549.76
2023-01-29T09:49:41.930Z,99552.50
2023-01-29T09:52:18.562Z,99548.83
2023-01-29T09:54:54.159Z,99551.58
2023-01-29T09:57:41.446Z,99549.42
2023-01-29T10:00:18.015Z,99543.77
2023-01-29T10:03:07.961Z,99539.02
2023-01-29T10:05:35.074Z,99537.63
2023-01-29T10:08:08.354Z,99533.98
2023-01-29T13:29:31.246Z,99428.61
2023-01-29T13:31:59.404Z,99425.81
2023-01-29T13:34:31.136Z,99423.09
2023-01-29T13:36:59.989Z,99422.91
2023-01-29T13:39:28.051Z,99425.27
2023-01-29T13:41:55.491Z,99424.42
2023-01-29T13:44:27.611Z,99423.85
2023-01-29T13:47:04.765Z,99425.04
2023-01-29T13:49:44.048Z,99423.20
2023-01-29T13:52:33.091Z,99427.24
2023-01-29T13:55:18.389Z,99430.15
2023-01-29T13:57:52.716Z,99429.09
2023-01-29T14:00:20.785Z,99425.59
2023-01-29T14:02:47.849Z,99424.48
2023-01-29T14:05:30.180Z,99421.07
2023-01-29T14:07:58.816Z,99422.59
2023-01-29T14:10:30.031Z,99422.05
2023-01-29T14:13:17.504Z,99418.87
2023-01-29T14:15:45.606Z,99415.67
2023-01-29T14:18:19.285Z,99416.14
2023-01-29T14:21:04.939Z,99411.54
2023-01-29T14:23:46.278Z,99404.73
2023-01-29T14:26:33.775Z,99404.23
2023-01-29T14:29:03.310Z,99403.48
2023-01-29T14:31:46.383Z,99402.88
2023-01-29T14:34:40.977Z,99409.52
2023-01-29T14:37:21.983Z,99409.27
2023-01-29T14:39:52.691Z,99411.19
2023-01-29T14:42:26.547Z,99411.09
2023-01-29T14:44:54.137Z,99414.66
2023-01-29T14:47:27.724Z,99417.02
2023-01-29T14:50:01.591Z,99421.08
2023-01-29T14:52:44.214Z,99422.80
2023-01-29T14:55:21.432Z,99424.64
2023-01-29T14:57:48.480Z,99424.48
2023-01-29T15:00:42.899Z,99425.36
2023-01-29T15:03:41.253Z,99425.96
2023-01-29T15:06:08.625Z,99432.58
2023-01-29T15:08:41.469Z,99433.36
2023-01-29T15:11:32.799Z,99435.23
2023-01-29T15:14:08.030Z,99431.96
2023-01-29T15:16:47.642Z,99429.75
2023-01-29T15:19:21.376Z,99432.34
2023-01-29T15:22:11.160Z,99430.03
2023-01-29T15:24:39.575Z,99428.49
2023-01-29T15:27:17.042Z,99430.52
2023-01-29T15:29:56.555Z,99426.80
2023-01-29T15:32:31.731Z,99428.90
2023-01-29T15:34:58.537Z,99431.13
2023-01-29T15:37:30.028Z,99430.46
2023-01-29T15:39:56.969Z,99433.07
2023-01-29T15:42:26.336Z,99434.10
2023-01-29T15:44:56.087Z,99431.70
2023-01-29T15:47:29.793Z,99433.30
2023-01-29T15:49:56.845Z,99435.20
2023-01-29T15:52:26.890Z,99432.13
2023-01-29T15:54:55.535Z,99434.99
2023-01-29T15:57:24.129Z,99433.80
2023-01-29T15:59:51.840Z,99432.13
2023-01-29T16:02:27.394Z,99433.55
2023-01-29T16:04:54.434Z,99432.85
2023-01-29T16:07:23.824Z,99433.31
2023-01-29T16:09:51.090Z,99431.63
2023-01-29T16:12:17.890Z,99430.95
2023-01-29T16:14:44.506Z,99430.71
2023-01-29T16:17:36.889Z,99435.09
2023-01-29T16:20:05.699Z,99432.07
2023-01-29T16:22:34.399Z,99433.05
2023-01-29T16:25:06.324Z,99435.31
2023-01-29T16:27:33.236Z,99434.95
2023-01-29T16:30:01.608Z,99432.82
2023-01-29T16:32:29.358Z,99434.27
2023-01-29T16:34:58.333Z,99435.62
2023-01-29T16:37:29.679Z,99440.91
2023-01-29T16:39:57.120Z,99438.19
2023-01-29T16:42:30.804Z,99441.01
2023-01-29T16:45:01.856Z,99441.39
2023-01-29T16:47:30.508Z,99438.84
2023-01-29T16:50:20.060Z,99437.95
2023-01-29T16:52:57.803Z,99434.98
2023-01-29T16:55:25.440Z,99438.91
2023-01-29T16:57:53.230Z,99442.20
2023-01-29T17:00:24.180Z,99441.61
2023-01-29T17:02:53.021Z,99438.55
2023-01-29T17:05:27.471Z,99438.02
2023-01-29T17:07:56.842Z,99438.77
2023-01-29T17:10:25.107Z,99443.06
2023-01-29T17:13:06.671Z,99444.14
2023-01-29T17:15:43.232Z,99445.05
2023-01-29T17:18:23.993Z,99443.14
2023-01-29T17:20:54.281Z,99442.40
2023-01-29T17:23:21.027Z,99437.67
2023-01-29T17:25:47.686Z,99440.16
2023-01-29T17:28:16.001Z,99439.04
2023-01-29T17:30:44.735Z,99434.76
2023-01-29T17:33:15.288Z,99437.67
2023-01-29T17:35:42.691Z,99434.21
2023-01-29T17:38:24.244Z,99433.30
2023-01-29T17:40:53.866Z,99429.53
2023-01-29T17:43:20.463Z,99429.80
2023-01-29T17:45:47.447Z,99424.46
2023-01-29T17:48:18.005Z,99420.45
2023-01-29T17:50:47.842Z,99416.98
2023-01-29T17:53:15.339Z,99415.48
2023-01-29T17:55:43.978Z,99409.59
2023-01-29T17:58:24.959Z,99410.81
2023-01-29T18:00:51.746Z,99406.39
2023-01-29T18:03:19.100Z,99406.95
2023-01-29T18:05:47.752Z,99406.50
2023-01-29T18:08:24.590Z,99404.89
2023-01-29T18:10:51.207Z,99406.20
2023-01-29T18:13:18.379Z,99404.05
2023-01-29T18:15:44.990Z,99399.31
2023-01-29T18:18:14.182Z,99398.61
2023-01-29T18:20:41.531Z,99399.70
2023-01-29T18:23:08.511Z,99396.48
2023-01-29T18:25:35.280Z,99396.38
2023-01-29T18:28:02.050Z,99392.80
2023-01-29T18:30:28.971Z,99396.55
2023-01-29T18:32:55.661Z,99389.47
2023-01-29T18:35:22.862Z,99393.13
2023-01-29T18:37:50.949Z,99396.23
2023-01-29T18:40:17.859Z,99396.84
2023-01-29T18:42:44.803Z,99394.74
2023-01-29T18:45:12.213Z,99396.79
2023-01-29T18:47:39.306Z,99397.05
2023-01-29T18:50:06.680Z,99400.48
2023-01-29T18:52:33.943Z,99403.73
2023-01-29T18:55:00.722Z,99401.64
2023-01-29T18:58:29.431Z,99398.27
2023-01-29T19:00:15.720Z,99400.83
2023-01-29T19:02:44.711Z,99404.84
2023-01-29T19:05:11.331Z,99405.35
2023-01-29T19:07:39.396Z,99406.36
2023-01-29T19:10:08.668Z,99408.52
2023-01-29T19:12:37.551Z,99412.70
2023-01-29T21:20:32.847Z,99378.08
2023-01-29T21:23:02.433Z,99370.22
2023-01-29T21:25:29.554Z,99369.84
2023-01-29T21:27:56.462Z,99367.98
2023-01-29T21:30:23.244Z,99368.45
2023-01-29T21:32:50.256Z,99367.57
2023-01-29T21:35:16.881Z,99369.44
2023-01-29T21:37:43.652Z,99365.94
2023-01-29T21:40:11.020Z,99363.63
2023-01-29T21:42:56.418Z,99360.77
2023-01-29T21:45:23.050Z,99367.42
2023-01-29T21:47:50.004Z,99369.52
2023-01-29T21:50:17.085Z,99367.67
2023-01-29T21:52:43.938Z,99363.83
2023-01-29T21:55:10.547Z,99355.40
2023-01-29T21:57:37.888Z,99352.30
2023-01-29T22:00:05.455Z,99353.23
2023-01-29T22:02:35.207Z,99352.30
2023-01-29T22:05:17.677Z,99356.96
2023-01-29T22:07:46.713Z,99349.77
2023-01-29T22:10:14.088Z,99346.02
2023-01-29T22:12:41.561Z,99341.50
2023-01-29T22:15:09.299Z,99344.27
2023-01-29T22:17:38.050Z,99344.91
2023-01-29T22:20:05.923Z,99342.01
2023-01-29T22:22:33.321Z,99347.21
2023-01-29T22:25:00.275Z,99345.27
2023-01-29T22:27:26.929Z,99339.63
2023-01-29T22:29:53.650Z,99334.13
2023-01-29T22:32:20.433Z,99331.31
2023-01-29T22:34:47.222Z,99332.71
2023-01-29T22:37:14.167Z,99336.16
2023-01-29T22:39:40.802Z,99335.41
2023-01-29T22:42:07.628Z,99328.16
2023-01-29T22:44:34.232Z,99330.43
2023-01-29T22:47:01.431Z,99326.33
2023-01-29T22:49:29.717Z,99329.60
2023-01-29T22:52:11.590Z,99325.81
2023-01-29T22:54:39.496Z,99322.73
2023-01-29T22:57:06.269Z,99321.02
2023-01-29T22:59:33.455Z,99319.25
2023-01-29T23:02:00.284Z,99317.12
2023-01-29T23:04:27.074Z,99310.50
2023-01-29T23:06:54.412Z,99308.35
2023-01-29T23:09:21.327Z,99302.04
2023-01-29T23:11:47.932Z,99298.50
2023-01-29T23:14:14.591Z,99298.77
2023-01-29T23:16:41.250Z,99297.33
2023-01-29T23:19:07.877Z,99293.71
2023-01-29T23:21:35.440Z,99293.04
2023-01-29T23:24:02.880Z,99291.95
2023-01-29T23:26:48.760Z,99286.77
2023-01-29T23:29:15.395Z,99277.26
2023-01-29T23:31:42.457Z,99271.52
2023-01-29T23:34:09.331Z,99264.38
2023-01-29T23:36:35.908Z,99259.72
2023-01-29T23:39:02.555Z,99258.95
2023-01-29T23:41:29.264Z,99259.59
2023-01-29T23:43:56.020Z,99256.03
2023-01-29T23:46:22.720Z,99251.42
2023-01-29T23:48:49.397Z,99241.88
2023-01-29T23:51:16.275Z,99238.65
2023-01-29T23:53:43.469Z,99238.20
2023-01-29T23:56:10.337Z,99237.13
2023-01-29T23:58:41.535Z,99232.13
